Startpagina
METAR-TAF:

METAR-TAF

Vliegvelden :

Chhatrapati Shivaji International Airport

Bombay, India

breedte: 19-07N, lengte: 072-51E, hoogte: 8 m

Actueel weer

Dit bericht is 33 minuten geleden gemaakt, om 07:30 UTC
Wind 9 kt uit het westzuidwesten
Temperatuur 29°C
Vochtigheid 35%
Druk 1015 hPa
Zicht: 5000 m
rook

METAR: VABB 160730Z 24009KT 5000 FU NSC 29/12 Q1015 NOSIG

Tijdstip: 13:33 (08:03 UTC)

Verwachting

Dit bericht is 3 uur en het 3 minuten geleden gemaakt, om 05:00 UTC
Verwachting geldig van 16 om 06 UTC tot 16 om 15 UTC
Wind 10 kt uit het westen
Zicht: 4000 m
rook
Wijzigt naar
van 16 om 12 UTC tot 16 om 14 UTC
Wind 7 kt uit het noordnoordwesten

TAF: VABB 160500Z 1606/1615 27010KT 4000 FU NSC BECMG 1612/1614 33007KT

Waarnemingen en weersverwachtingen van meer dan 4000 vliegvelden (METAR en TAF).

De beschikbare stations zijn de gele en rode punten op de kaart.

Ga met uw muis naar het station om de naam te zien.

Klik dan om waarnemingen en weersverwachtingen te zien.

kaart wijzigen: klik op de groene knoppen met een zwart kruis om in te zoomen, op de groene knop met een streepje om uit te zoomen of op de groene pijlen voor aangrenzende kaarten.


METAR-TAF: